createdAt,value
2022-12-16T00:00:59.237Z,8.70
2022-12-16T00:03:25.804Z,8.70
2022-12-16T00:05:52.365Z,8.70
2022-12-16T00:08:18.825Z,8.70
2022-12-16T00:10:50.806Z,8.70
2022-12-16T00:13:20.755Z,8.70
2022-12-16T00:15:47.222Z,8.70
2022-12-16T00:18:13.698Z,8.70
2022-12-16T00:20:40.146Z,8.70
2022-12-16T00:23:06.646Z,8.70
2022-12-16T00:25:38.797Z,8.60
2022-12-16T00:28:05.284Z,8.70
2022-12-16T00:30:31.750Z,8.70
2022-12-16T00:32:58.215Z,8.70
2022-12-16T00:35:24.673Z,8.70
2022-12-16T00:37:51.131Z,8.60
2022-12-16T00:40:18.231Z,8.60
2022-12-16T00:42:44.657Z,8.70
2022-12-16T00:45:11.135Z,8.70
2022-12-16T00:47:41.017Z,8.70
2022-12-16T00:50:10.237Z,8.70
2022-12-16T00:52:36.713Z,8.70
2022-12-16T00:55:03.179Z,8.70
2022-12-16T00:57:32.939Z,8.70
2022-12-16T00:59:59.410Z,8.70
2022-12-16T01:02:26.089Z,8.70
2022-12-16T01:04:52.635Z,8.70
2022-12-16T01:07:21.334Z,8.80
2022-12-16T01:09:47.818Z,8.70
2022-12-16T01:12:14.281Z,8.70
2022-12-16T01:14:40.754Z,8.60
2022-12-16T01:17:07.231Z,8.70
2022-12-16T01:19:33.698Z,8.80
2022-12-16T01:22:00.176Z,8.70
2022-12-16T01:24:26.639Z,8.80
2022-12-16T01:26:53.094Z,8.70
2022-12-16T01:29:19.910Z,8.70
2022-12-16T01:31:50.900Z,8.70
2022-12-16T01:34:17.382Z,8.70
2022-12-16T01:36:44.771Z,8.60
2022-12-16T01:39:11.210Z,8.60
2022-12-16T01:41:37.673Z,8.60
2022-12-16T01:44:04.148Z,8.60
2022-12-16T01:46:30.643Z,8.70
2022-12-16T01:48:57.092Z,8.70
2022-12-16T01:51:23.575Z,8.70
2022-12-16T01:53:50.018Z,8.70
2022-12-16T01:56:17.109Z,8.70
2022-12-16T01:58:43.565Z,8.70
2022-12-16T02:01:10.081Z,8.60
2022-12-16T02:03:36.947Z,8.70
2022-12-16T02:06:03.847Z,8.60
2022-12-16T02:08:30.314Z,8.70
2022-12-16T02:10:56.783Z,8.70
2022-12-16T02:13:23.245Z,8.70
2022-12-16T02:15:49.710Z,8.70
2022-12-16T02:18:16.186Z,8.70
2022-12-16T02:20:42.672Z,8.70
2022-12-16T02:23:09.146Z,8.70
2022-12-16T02:25:35.617Z,8.60
2022-12-16T02:28:02.080Z,8.70
2022-12-16T02:30:28.609Z,8.60
2022-12-16T02:32:56.809Z,8.60
2022-12-16T02:35:23.278Z,8.60
2022-12-16T02:37:49.763Z,8.70
2022-12-16T02:40:17.032Z,8.60
2022-12-16T02:42:43.475Z,8.70
2022-12-16T02:45:11.058Z,8.60
2022-12-16T02:47:37.517Z,8.70
2022-12-16T02:50:03.974Z,8.70
2022-12-16T02:52:30.448Z,8.60
2022-12-16T02:54:56.908Z,8.70
2022-12-16T02:57:23.374Z,8.60
2022-12-16T02:59:49.835Z,8.60
2022-12-16T03:02:16.462Z,8.60
2022-12-16T03:04:43.077Z,8.50
2022-12-16T03:07:09.527Z,8.50
2022-12-16T03:09:38.841Z,8.60
2022-12-16T03:12:05.293Z,8.70
2022-12-16T03:14:31.757Z,8.70
2022-12-16T03:16:58.340Z,8.60
2022-12-16T03:19:24.876Z,8.40
2022-12-16T03:21:51.357Z,8.50
2022-12-16T03:24:17.842Z,8.60
2022-12-16T03:26:44.314Z,8.60
2022-12-16T03:29:10.793Z,8.70
2022-12-16T03:31:37.277Z,8.60
2022-12-16T03:34:03.759Z,8.70
2022-12-16T03:36:30.230Z,8.60
2022-12-16T03:38:56.688Z,8.60
2022-12-16T03:41:23.149Z,8.60
2022-12-16T03:43:49.612Z,8.70
2022-12-16T03:46:16.121Z,8.70
2022-12-16T03:48:42.610Z,8.70
2022-12-16T03:51:09.100Z,8.60
2022-12-16T03:53:35.962Z,8.60
2022-12-16T03:56:02.945Z,8.60
2022-12-16T03:58:29.417Z,8.50
2022-12-16T04:00:55.940Z,8.60
2022-12-16T04:03:22.460Z,8.50
2022-12-16T04:05:48.964Z,8.50
2022-12-16T04:08:15.430Z,8.60
2022-12-16T04:10:44.944Z,8.60
2022-12-16T04:13:11.412Z,8.70
2022-12-16T04:15:37.925Z,8.60
2022-12-16T04:18:04.451Z,8.60
2022-12-16T04:20:30.916Z,8.60
2022-12-16T04:22:57.385Z,8.50
2022-12-16T04:25:23.850Z,8.60
2022-12-16T04:27:50.331Z,8.50
2022-12-16T04:30:21.028Z,8.60
2022-12-16T04:32:47.510Z,8.70
2022-12-16T04:35:13.984Z,8.60
2022-12-16T04:37:40.434Z,8.70
2022-12-16T04:40:06.881Z,8.60
2022-12-16T04:42:33.340Z,8.60
2022-12-16T04:44:59.930Z,8.50
2022-12-16T04:47:26.590Z,8.50
2022-12-16T04:49:53.052Z,8.50
2022-12-16T04:52:19.522Z,8.60
2022-12-16T04:54:45.992Z,8.70
2022-12-16T04:57:12.483Z,8.60
2022-12-16T04:59:38.945Z,8.50
2022-12-16T05:02:05.569Z,8.60
2022-12-16T05:04:32.095Z,8.60
2022-12-16T05:06:58.582Z,8.60
2022-12-16T05:09:26.941Z,8.60
2022-12-16T05:11:53.413Z,8.60
2022-12-16T05:14:19.858Z,8.60
2022-12-16T05:16:46.307Z,8.60
2022-12-16T05:19:12.786Z,8.50
2022-12-16T05:21:39.258Z,8.50
2022-12-16T05:24:05.723Z,8.60
2022-12-16T05:26:32.187Z,8.60
2022-12-16T05:28:58.659Z,8.50
2022-12-16T05:31:25.212Z,8.60
2022-12-16T05:33:51.793Z,8.50
2022-12-16T05:36:18.263Z,8.50
2022-12-16T05:38:44.727Z,8.50
2022-12-16T05:41:11.196Z,8.40
2022-12-16T05:43:37.669Z,8.50
2022-12-16T05:46:04.212Z,8.40
2022-12-16T05:48:30.746Z,8.50
2022-12-16T05:50:57.229Z,8.50
2022-12-16T05:53:23.697Z,8.40
2022-12-16T05:55:50.144Z,8.40
2022-12-16T05:58:16.655Z,8.50
2022-12-16T06:00:43.109Z,8.40
2022-12-16T06:03:15.144Z,8.40
2022-12-16T06:05:41.698Z,8.50
2022-12-16T06:08:08.193Z,8.40
2022-12-16T06:10:34.655Z,8.40
2022-12-16T06:13:01.142Z,8.50
2022-12-16T06:15:27.607Z,8.50
2022-12-16T06:17:54.054Z,8.40
2022-12-16T06:20:20.510Z,8.40
2022-12-16T06:22:46.985Z,8.40
2022-12-16T06:25:13.459Z,8.50
2022-12-16T06:27:39.917Z,8.50
2022-12-16T06:30:06.386Z,8.50
2022-12-16T06:32:32.855Z,8.50
2022-12-16T06:34:59.326Z,8.50
2022-12-16T06:37:25.803Z,8.50
2022-12-16T06:39:53.186Z,8.50
2022-12-16T06:42:19.812Z,8.50
2022-12-16T06:44:46.275Z,8.40
2022-12-16T06:47:12.759Z,8.40
2022-12-16T06:49:39.221Z,8.50
2022-12-16T06:52:05.685Z,8.50
2022-12-16T06:54:32.155Z,8.50
2022-12-16T06:56:58.619Z,8.50
2022-12-16T06:59:25.090Z,8.50
2022-12-16T07:01:51.701Z,8.40
2022-12-16T07:04:18.235Z,8.50
2022-12-16T07:06:44.695Z,8.50
2022-12-16T07:09:15.072Z,8.50
2022-12-16T07:11:41.537Z,8.50
2022-12-16T07:14:08.039Z,8.60
2022-12-16T07:16:34.552Z,8.50
2022-12-16T07:19:01.063Z,8.60
2022-12-16T07:21:27.543Z,8.40
2022-12-16T07:23:54.029Z,8.40
2022-12-16T07:26:21.019Z,8.40
2022-12-16T07:28:47.478Z,8.50
2022-12-16T07:31:13.990Z,8.50
2022-12-16T07:33:40.526Z,8.50
2022-12-16T07:36:06.978Z,8.60
2022-12-16T07:38:33.429Z,8.40
2022-12-16T07:40:59.893Z,8.50
2022-12-16T07:43:26.356Z,8.50
2022-12-16T07:45:52.887Z,8.60
2022-12-16T07:48:20.408Z,8.50
2022-12-16T07:50:46.867Z,8.50
2022-12-16T07:53:13.324Z,8.40
2022-12-16T07:55:39.807Z,8.40
2022-12-16T07:58:06.251Z,8.50
2022-12-16T08:00:32.742Z,8.40
2022-12-16T08:02:59.342Z,8.50
2022-12-16T08:05:27.140Z,8.40
2022-12-16T08:07:53.613Z,8.50
2022-12-16T08:10:22.212Z,8.50
2022-12-16T08:12:48.679Z,8.50
2022-12-16T08:15:15.172Z,8.50
2022-12-16T08:17:41.639Z,8.50
2022-12-16T08:20:08.143Z,8.40
2022-12-16T08:22:34.612Z,8.40
2022-12-16T08:25:01.117Z,8.40
2022-12-16T08:27:27.592Z,8.50
2022-12-16T08:29:54.055Z,8.60
2022-12-16T08:32:21.807Z,8.50
2022-12-16T08:34:48.280Z,8.50
2022-12-16T08:37:14.768Z,8.60
2022-12-16T08:39:41.236Z,8.50
2022-12-16T08:42:07.700Z,8.50
2022-12-16T08:44:34.161Z,8.30
2022-12-16T08:47:00.635Z,8.40
2022-12-16T08:49:33.368Z,8.40
2022-12-16T08:51:59.844Z,8.40
2022-12-16T08:54:26.330Z,8.40
2022-12-16T08:56:52.814Z,8.50
2022-12-16T08:59:19.299Z,8.50
2022-12-16T09:01:45.841Z,8.60
2022-12-16T09:04:12.456Z,8.60
2022-12-16T09:06:40.868Z,8.60
2022-12-16T09:09:07.659Z,8.50
2022-12-16T09:11:35.344Z,8.60
2022-12-16T09:14:01.843Z,8.70
2022-12-16T09:16:28.407Z,8.70
2022-12-16T09:18:54.959Z,8.70
2022-12-16T09:21:22.376Z,8.60
2022-12-16T09:23:48.864Z,8.60
2022-12-16T09:26:15.405Z,8.50
2022-12-16T09:28:42.255Z,8.60
2022-12-16T09:31:08.765Z,8.60
2022-12-16T09:33:35.902Z,8.60
2022-12-16T09:36:02.787Z,8.60
2022-12-16T09:38:29.252Z,8.50
2022-12-16T09:40:55.734Z,8.60
2022-12-16T09:43:22.195Z,8.70
2022-12-16T09:45:48.665Z,8.70
2022-12-16T09:48:15.141Z,8.70
2022-12-16T09:50:41.609Z,8.60
2022-12-16T09:53:08.072Z,8.70
2022-12-16T09:55:35.264Z,8.60
2022-12-16T09:58:01.737Z,8.70
2022-12-16T10:00:28.206Z,8.60
2022-12-16T10:02:54.813Z,8.70
2022-12-16T10:05:27.332Z,8.60
2022-12-16T10:07:53.799Z,8.50
2022-12-16T10:10:21.996Z,8.60
2022-12-16T10:12:48.571Z,8.50
2022-12-16T10:15:15.046Z,8.70
2022-12-16T10:17:41.547Z,8.70
2022-12-16T10:20:09.710Z,8.60
2022-12-16T10:22:36.410Z,8.60
2022-12-16T10:25:02.893Z,8.60
2022-12-16T10:27:29.372Z,8.50
2022-12-16T10:29:55.846Z,8.60
2022-12-16T10:32:22.546Z,8.50
2022-12-16T10:34:49.039Z,8.50
2022-12-16T10:37:20.607Z,8.50
2022-12-16T10:39:47.660Z,8.50
2022-12-16T10:42:14.120Z,8.40
2022-12-16T10:44:40.630Z,8.60
2022-12-16T10:47:07.100Z,8.60
2022-12-16T10:49:33.675Z,8.70
2022-12-16T10:52:02.852Z,8.70
2022-12-16T10:54:33.319Z,8.70
2022-12-16T10:56:59.782Z,8.70
2022-12-16T10:59:26.252Z,8.60
2022-12-16T11:01:52.713Z,8.60
2022-12-16T11:04:19.477Z,8.60
2022-12-16T11:06:46.043Z,8.60
2022-12-16T11:09:12.509Z,8.60
2022-12-16T11:11:38.964Z,8.50
2022-12-16T11:14:05.445Z,8.70
2022-12-16T11:16:33.320Z,8.70
2022-12-16T11:18:59.870Z,8.70
2022-12-16T11:21:26.328Z,8.50
2022-12-16T11:23:52.803Z,8.50
2022-12-16T11:26:19.276Z,8.50
2022-12-16T11:28:45.742Z,8.50
2022-12-16T11:31:12.279Z,8.60
2022-12-16T11:33:38.785Z,8.60
2022-12-16T11:36:05.262Z,8.70
2022-12-16T11:38:31.730Z,8.70
2022-12-16T11:40:58.193Z,8.80
2022-12-16T11:43:24.660Z,8.80
2022-12-16T11:45:51.112Z,8.80
2022-12-16T11:48:17.634Z,8.80
2022-12-16T11:50:44.090Z,8.70
2022-12-16T11:53:10.556Z,8.70
2022-12-16T11:56:04.436Z,8.70
2022-12-16T11:58:23.490Z,8.70
2022-12-16T12:00:49.978Z,8.80
2022-12-16T12:03:17.792Z,8.70
2022-12-16T12:05:44.320Z,8.80
2022-12-16T12:08:10.796Z,8.80
2022-12-16T12:10:37.264Z,8.70
2022-12-16T12:13:03.751Z,8.70
2022-12-16T12:15:30.244Z,8.80
2022-12-16T12:17:56.716Z,8.80
2022-12-16T12:20:23.191Z,8.80
2022-12-16T12:22:49.676Z,8.90
2022-12-16T12:25:16.155Z,8.80
2022-12-16T12:27:42.625Z,8.80
2022-12-16T12:30:14.534Z,8.80
2022-12-16T12:32:42.742Z,8.80
2022-12-16T12:35:09.220Z,8.80
2022-12-16T12:37:35.679Z,8.90
2022-12-16T12:40:02.150Z,8.90
2022-12-16T12:42:28.628Z,8.90
2022-12-16T12:44:55.107Z,8.90
2022-12-16T12:47:22.366Z,8.90
2022-12-16T12:49:48.848Z,8.90
2022-12-16T12:52:15.282Z,8.80
2022-12-16T12:54:41.736Z,8.90
2022-12-16T12:57:08.206Z,8.90
2022-12-16T12:59:34.662Z,8.90
2022-12-16T13:02:01.276Z,8.90
2022-12-16T13:04:28.044Z,8.90
2022-12-16T13:06:54.506Z,8.90
2022-12-16T13:09:21.955Z,9.00
2022-12-16T13:11:48.430Z,9.00
2022-12-16T13:14:14.881Z,9.00
2022-12-16T13:16:41.365Z,9.00
2022-12-16T13:19:09.731Z,9.00
2022-12-16T13:21:36.424Z,8.90
2022-12-16T13:24:02.895Z,8.90
2022-12-16T13:26:29.362Z,9.00
2022-12-16T13:28:55.838Z,9.00
2022-12-16T13:31:25.542Z,9.00
2022-12-16T13:33:57.380Z,9.00
2022-12-16T13:36:23.863Z,9.00
2022-12-16T13:38:50.338Z,9.00
2022-12-16T13:41:16.793Z,9.00
2022-12-16T13:43:43.254Z,9.00
2022-12-16T13:46:09.759Z,9.00
2022-12-16T13:48:36.342Z,9.00
2022-12-16T13:51:02.802Z,9.00
2022-12-16T13:53:29.271Z,9.10
2022-12-16T13:55:55.731Z,9.00
2022-12-16T13:58:22.212Z,9.00
2022-12-16T14:00:48.688Z,9.00
2022-12-16T14:03:15.234Z,9.00
2022-12-16T14:05:41.740Z,9.00
2022-12-16T14:08:08.208Z,9.10
2022-12-16T14:10:34.671Z,8.90
2022-12-16T14:13:01.136Z,8.90
2022-12-16T14:15:27.599Z,8.90
2022-12-16T14:17:54.075Z,9.00
2022-12-16T14:20:20.540Z,8.90
2022-12-16T14:22:47.001Z,9.00
2022-12-16T14:25:13.456Z,9.10
2022-12-16T14:27:39.918Z,9.00
2022-12-16T14:30:06.381Z,9.00
2022-12-16T14:32:32.837Z,8.90
2022-12-16T14:34:59.314Z,9.00
2022-12-16T14:37:25.783Z,9.00
2022-12-16T14:39:52.264Z,9.00
2022-12-16T14:42:18.729Z,9.00
2022-12-16T14:44:45.190Z,9.00
2022-12-16T14:47:11.643Z,9.00
2022-12-16T14:49:38.100Z,9.00
2022-12-16T14:52:04.585Z,9.00
2022-12-16T14:54:31.051Z,9.00
2022-12-16T14:56:57.512Z,9.00
2022-12-16T14:59:23.982Z,9.00
2022-12-16T15:01:50.508Z,9.00
2022-12-16T15:04:17.278Z,9.10
2022-12-16T15:06:43.901Z,9.00
2022-12-16T15:09:10.379Z,9.00
2022-12-16T15:11:36.841Z,9.00
2022-12-16T15:14:04.025Z,9.00
2022-12-16T15:16:30.753Z,9.00
2022-12-16T15:18:57.296Z,9.00
2022-12-16T15:21:23.763Z,9.00
2022-12-16T15:23:50.227Z,9.00
2022-12-16T15:26:16.696Z,9.00
2022-12-16T15:28:43.143Z,9.00
2022-12-16T15:31:09.650Z,8.90
2022-12-16T15:33:36.248Z,8.90
2022-12-16T15:36:02.941Z,8.90
2022-12-16T15:38:29.407Z,8.90
2022-12-16T15:40:55.867Z,9.00
2022-12-16T15:43:22.323Z,9.00
2022-12-16T15:45:48.896Z,9.00
2022-12-16T15:48:15.436Z,9.00
2022-12-16T15:50:41.905Z,9.00
2022-12-16T15:53:08.370Z,9.00
2022-12-16T15:55:34.850Z,8.90
2022-12-16T15:58:01.323Z,8.80
2022-12-16T16:00:27.789Z,8.90
2022-12-16T16:02:54.416Z,8.90
2022-12-16T16:05:20.979Z,9.00
2022-12-16T16:07:47.436Z,9.00
2022-12-16T16:10:14.063Z,9.00
2022-12-16T16:12:40.533Z,9.00
2022-12-16T16:15:07.011Z,9.00
2022-12-16T16:17:33.484Z,9.00
2022-12-16T16:20:03.561Z,9.00
2022-12-16T16:22:30.590Z,9.00
2022-12-16T16:24:57.056Z,9.00
2022-12-16T16:27:23.708Z,9.00
2022-12-16T16:29:50.217Z,9.00
2022-12-16T16:32:16.683Z,9.00
2022-12-16T16:34:43.141Z,9.00
2022-12-16T16:37:09.617Z,9.00
2022-12-16T16:39:36.101Z,9.00
2022-12-16T16:42:02.568Z,8.90
2022-12-16T16:44:29.032Z,8.90
2022-12-16T16:46:55.545Z,9.00
2022-12-16T16:49:22.057Z,8.90
2022-12-16T16:51:48.575Z,8.90
2022-12-16T16:54:15.043Z,8.90
2022-12-16T16:56:41.505Z,8.90
2022-12-16T16:59:07.967Z,8.60
2022-12-16T17:01:34.596Z,8.70
2022-12-16T17:04:01.396Z,8.80
2022-12-16T17:06:27.953Z,8.90
2022-12-16T17:08:54.399Z,8.90
2022-12-16T17:11:20.862Z,8.90
2022-12-16T17:13:47.331Z,8.90
2022-12-16T17:16:13.824Z,8.90
2022-12-16T17:18:45.700Z,8.90
2022-12-16T17:21:14.344Z,8.90
2022-12-16T17:23:40.802Z,8.90
2022-12-16T17:26:07.283Z,8.90
2022-12-16T17:28:33.741Z,8.90
2022-12-16T17:31:00.295Z,8.90
2022-12-16T17:33:26.836Z,8.90
2022-12-16T17:35:53.292Z,8.90
2022-12-16T17:38:19.762Z,8.90
2022-12-16T17:40:46.242Z,9.00
2022-12-16T17:43:12.720Z,9.00
2022-12-16T17:45:39.181Z,8.90
2022-12-16T17:48:05.646Z,8.90
2022-12-16T17:50:32.109Z,8.90
2022-12-16T17:52:58.572Z,8.90
2022-12-16T17:55:25.046Z,8.90
2022-12-16T17:57:51.546Z,8.80
2022-12-16T18:00:18.009Z,8.90
2022-12-16T18:02:44.636Z,8.80
2022-12-16T18:05:11.217Z,8.80
2022-12-16T18:07:37.685Z,8.80
2022-12-16T18:10:04.136Z,8.50
2022-12-16T18:12:30.587Z,8.40
2022-12-16T18:14:57.051Z,8.30
2022-12-16T18:17:23.528Z,8.20
2022-12-16T18:19:49.976Z,8.10
2022-12-16T18:22:16.438Z,8.00
2022-12-16T18:24:48.211Z,8.40
2022-12-16T18:27:15.078Z,8.30
2022-12-16T18:29:41.546Z,8.20
2022-12-16T18:32:07.992Z,8.40
2022-12-16T18:34:34.468Z,8.60
2022-12-16T18:37:00.939Z,8.50
2022-12-16T18:39:27.398Z,8.40
2022-12-16T18:41:53.852Z,8.50
2022-12-16T18:44:22.280Z,8.70
2022-12-16T18:46:48.787Z,8.60
2022-12-16T18:49:15.284Z,8.70
2022-12-16T18:51:41.750Z,8.80
2022-12-16T18:54:08.219Z,8.80
2022-12-16T18:56:34.687Z,8.80
2022-12-16T18:59:01.264Z,8.70
2022-12-16T19:01:28.048Z,8.70
2022-12-16T19:03:54.616Z,8.80
2022-12-16T19:06:21.092Z,8.70
2022-12-16T19:08:47.558Z,8.80
2022-12-16T19:11:14.028Z,8.60
2022-12-16T19:13:40.494Z,8.30
2022-12-16T19:16:07.024Z,8.40
2022-12-16T19:18:33.854Z,8.60
2022-12-16T19:21:00.627Z,8.60
2022-12-16T19:23:27.090Z,8.70
2022-12-16T19:25:53.589Z,8.70
2022-12-16T19:28:20.219Z,8.80
2022-12-16T19:30:46.722Z,8.80
2022-12-16T19:33:13.192Z,8.80
2022-12-16T19:35:39.654Z,8.80
2022-12-16T19:38:06.115Z,8.50
2022-12-16T19:40:32.652Z,8.70
2022-12-16T19:42:59.114Z,8.80
2022-12-16T19:45:25.605Z,8.70
2022-12-16T19:47:52.094Z,8.70
2022-12-16T19:50:19.775Z,8.70
2022-12-16T19:52:46.239Z,8.60
2022-12-16T19:55:16.975Z,8.50
2022-12-16T19:57:44.038Z,8.60
2022-12-16T20:00:10.491Z,8.50
2022-12-16T20:02:37.172Z,8.60
2022-12-16T20:05:09.838Z,8.70
2022-12-16T20:07:36.304Z,8.60
2022-12-16T20:10:02.765Z,8.70
2022-12-16T20:12:29.253Z,8.60
2022-12-16T20:14:57.695Z,8.70
2022-12-16T20:17:24.162Z,8.50
2022-12-16T20:19:50.615Z,8.60
2022-12-16T20:22:18.124Z,8.60
2022-12-16T20:24:44.585Z,8.70
2022-12-16T20:27:11.062Z,8.70
2022-12-16T20:29:37.538Z,8.70
2022-12-16T20:32:04.009Z,8.70
2022-12-16T20:34:30.509Z,8.70
2022-12-16T20:36:57.015Z,8.60
2022-12-16T20:39:23.490Z,8.60
2022-12-16T20:41:49.958Z,8.70
2022-12-16T20:44:16.432Z,8.70
2022-12-16T20:46:42.898Z,8.70
2022-12-16T20:49:09.388Z,8.40
2022-12-16T20:51:35.966Z,8.50
2022-12-16T20:54:02.447Z,8.60
2022-12-16T20:56:28.982Z,8.60
2022-12-16T20:58:56.180Z,8.60
2022-12-16T21:01:27.858Z,8.70
2022-12-16T21:03:54.418Z,8.70
2022-12-16T21:06:22.841Z,8.70
2022-12-16T21:08:49.307Z,8.60
2022-12-16T21:11:15.795Z,8.60
2022-12-16T21:13:42.288Z,8.70
2022-12-16T21:16:08.790Z,8.70
2022-12-16T21:18:36.023Z,8.70
2022-12-16T21:21:02.474Z,8.60
2022-12-16T21:23:28.967Z,8.60
2022-12-16T21:25:55.423Z,8.70
2022-12-16T21:28:22.518Z,8.50
2022-12-16T21:30:48.983Z,8.60
2022-12-16T21:33:15.450Z,8.40
2022-12-16T21:35:41.954Z,8.50
2022-12-16T21:38:08.443Z,8.60
2022-12-16T21:40:34.937Z,8.60
2022-12-16T21:43:01.387Z,8.50
2022-12-16T21:45:27.844Z,8.60
2022-12-16T21:47:54.304Z,8.70
2022-12-16T21:50:22.506Z,8.70
2022-12-16T21:52:48.976Z,8.70
2022-12-16T21:55:15.446Z,8.60
2022-12-16T21:57:41.954Z,8.70
2022-12-16T22:00:08.417Z,8.40
2022-12-16T22:02:35.120Z,8.60
2022-12-16T22:05:01.590Z,8.50
2022-12-16T22:07:28.062Z,8.60
2022-12-16T22:09:54.543Z,8.60
2022-12-16T22:12:22.825Z,8.60
2022-12-16T22:14:49.291Z,8.60
2022-12-16T22:17:15.776Z,8.50
2022-12-16T22:19:42.326Z,8.60
2022-12-16T22:22:08.790Z,8.60
2022-12-16T22:24:35.976Z,8.60
2022-12-16T22:27:02.522Z,8.60
2022-12-16T22:29:28.999Z,8.70
2022-12-16T22:31:55.475Z,8.50
2022-12-16T22:34:22.918Z,8.30
2022-12-16T22:36:49.407Z,8.50
2022-12-16T22:39:15.889Z,8.70
2022-12-16T22:41:42.377Z,8.60
2022-12-16T22:44:09.817Z,8.20
2022-12-16T22:46:36.362Z,8.40
2022-12-16T22:49:02.875Z,8.50
2022-12-16T22:51:29.368Z,8.00
2022-12-16T22:53:55.836Z,8.30
2022-12-16T22:56:22.942Z,8.50
2022-12-16T22:58:49.454Z,8.50
2022-12-16T23:01:15.916Z,8.40
2022-12-16T23:03:42.867Z,8.30
2022-12-16T23:06:09.695Z,8.30
2022-12-16T23:08:36.253Z,8.40
2022-12-16T23:11:02.732Z,8.40
2022-12-16T23:13:29.192Z,8.40
2022-12-16T23:15:56.415Z,8.40
2022-12-16T23:18:23.124Z,8.50
2022-12-16T23:20:49.622Z,8.50
2022-12-16T23:23:16.128Z,8.40
2022-12-16T23:25:42.597Z,8.50
2022-12-16T23:28:09.061Z,8.60
2022-12-16T23:30:36.107Z,8.50
2022-12-16T23:33:02.575Z,8.30
2022-12-16T23:35:29.058Z,8.50
2022-12-16T23:37:55.518Z,8.50
2022-12-16T23:40:22.703Z,8.50
2022-12-16T23:42:49.158Z,8.30
2022-12-16T23:45:15.655Z,8.30
2022-12-16T23:47:42.116Z,8.10
2022-12-16T23:50:13.994Z,8.00
2022-12-16T23:52:42.422Z,8.20
2022-12-16T23:55:08.893Z,8.40
2022-12-16T23:57:36.283Z,8.10
